Bookmark and Share
Track history (hours):
 

Adi I

Last reported at 2012-Sep-29 22:33 UTC. Time now 2014-Apr-20 13:30 UTC.
Position N 34°45' E 034°49'.
Warning: this ship's position is years out of date!

Length 148 m; draft 9.3 m.

Type: Cargo ship. MMSI: 667202900.

NotesDate/timePositionNaut miles runAvg speedWind from/ knotsBaromVisibWave heightAir tempDewpointWater temp
2012-Sep-29 22:33N 34°45' E 034°49'1211.3
2012-Sep-29 21:28N 34°42' E 034°34'1011.2
2012-Sep-29 20:32N 34°40' E 034°22'2311.4
2012-Sep-29 18:33N 34°35' E 033°55'1110.8
2012-Sep-29 17:31N 34°32' E 033°42'1010.6
2012-Sep-29 16:33N 34°29' E 033°30'12110.1
2012-Sep-29 04:32N 35°07' E 031°09'10 9.7
2012-Sep-29 03:32N 35°11' E 030°59'10 9.7
2012-Sep-29 02:27N 35°17' E 030°48'93 9.4
2012-Sep-28 16:33N 36°05' E 029°09'36 9.1
2012-Sep-28 12:33N 36°22' E 028°30'27 9.2
2012-Sep-28 09:33N 36°29' E 027°57'9 9.3
2012-Sep-28 08:33N 36°29' E 027°45'10 9.8
2012-Sep-28 07:33N 36°30' E 027°33'10 9.9
2012-Sep-28 06:33N 36°31' E 027°21'10 9.6
2012-Sep-28 05:33N 36°32' E 027°09'9 9.2
2012-Sep-28 04:36N 36°34' E 026°58'1110.0
2012-Sep-28 03:32N 36°42' E 026°50'1010.1
2012-Sep-28 02:33N 36°51' E 026°44'10 9.6
2012-Sep-28 01:33N 36°59' E 026°37'10 9.6
2012-Sep-28 00:33N 37°06' E 026°30'10 9.6
2012-Sep-27 23:33N 37°12' E 026°20'9 9.6
2012-Sep-27 22:33N 37°18' E 026°11'10 9.5
2012-Sep-27 21:33N 37°25' E 026°02'10 9.8
2012-Sep-27 20:33N 37°33' E 025°55'10 9.8
2012-Sep-27 19:32N 37°42' E 025°52'9 9.6
2012-Sep-27 18:33N 37°52' E 025°51'10 9.4
2012-Sep-27 17:33N 38°01' E 025°48'10 9.6
2012-Sep-27 16:33N 38°10' E 025°47'10 9.8
2012-Sep-27 15:33N 38°20' E 025°46'1010.1
2012-Sep-27 14:33N 38°30' E 025°44'10 9.8
2012-Sep-27 13:33N 38°40' E 025°44'10 9.3
2012-Sep-27 12:30N 38°50' E 025°44'10 9.8
2012-Sep-27 11:31N 38°59' E 025°44'9 9.9
2012-Sep-27 10:35N 39°09' E 025°44'10 9.7
2012-Sep-27 09:31N 39°19' E 025°45'10 9.9
2012-Sep-27 08:32N 39°29' E 025°46'31 9.8
2012-Sep-27 05:25N 39°58' E 025°57'166 9.2
2012-Sep-26 11:24N 41°18' E 029°09'7 8.2
2012-Sep-26 10:35N 41°25' E 029°11'6 5.2
2012-Sep-26 09:30N 41°30' E 029°13'0 0.3
2012-Sep-26 08:24N 41°30' E 029°13'266 8.6
2012-Sep-25 01:27N 45°45' E 030°56'8 9.2
2012-Sep-25 00:32N 45°53' E 030°59'9 9.2
2012-Sep-24 23:32N 46°02' E 031°02'16 8.3
2012-Sep-24 21:33N 46°17' E 030°55'27 6.8
2012-Sep-24 17:31N 46°35' E 031°26'19 9.4
2012-Sep-24 15:27N 46°38' E 031°53'8 8.5
2012-Sep-24 14:32N 46°45' E 031°54'9 9.3
2012-Sep-24 13:33N 46°53' E 032°00'3 3.4
2012-Sep-24 12:33N 46°57' E 032°01'0 0.0
2012-Sep-24 11:33N 46°57' E 032°01'0 0.0
2012-Sep-24 10:33N 46°57' E 032°01'0 0.0
2012-Sep-24 09:33N 46°57' E 032°01'0 0.0
2012-Sep-24 08:33N 46°57' E 032°01'0 0.0
2012-Sep-24 07:33N 46°57' E 032°01'0 0.0
2012-Sep-24 06:33N 46°57' E 032°01'0 0.0
2012-Sep-23 08:33N 46°57' E 032°01'0 0.0
2012-Sep-23 07:33N 46°57' E 032°01'0 0.0
2012-Sep-23 06:33N 46°57' E 032°01'0 0.0
2012-Sep-22 23:33N 46°57' E 032°01'0 0.0
2012-Sep-22 22:33N 46°57' E 032°01'0 0.0
2012-Sep-22 21:33N 46°57' E 032°01'0 0.0
2012-Sep-22 20:33N 46°57' E 032°01'0 0.0
2012-Sep-22 19:33N 46°57' E 032°01'0 0.0
2012-Sep-22 18:33N 46°57' E 032°01'0 0.0
2012-Sep-22 17:33N 46°57' E 032°01'0 0.0
2012-Sep-22 16:33N 46°57' E 032°01'0 0.0
2012-Sep-22 15:33N 46°57' E 032°01'0 0.0
2012-Sep-22 14:33N 46°57' E 032°01'7 6.6
2012-Sep-22 13:33N 46°51' E 031°57'1010.5
2012-Sep-22 12:33N 46°40' E 031°56'1111.2
2012-Sep-22 11:33N 46°36' E 031°41'1111.3
2012-Sep-22 10:33N 46°35' E 031°25'334 8.1
2012-Sep-20 17:25N 41°15' E 029°09'  

Dump ship's entire track history

sailing weather and tide predictions

Adi I — 9LB2225 — position and weather